Mobilana — 2ETN8 — position and weather

sailwx.info

Track history (hours):
 
Tides and Currents Weather Stations Pressure Air Temp Water Temp Dewpoint Dewpoint Depression Visibility Wind Speed Wind Dir Waves Ship Positions

Mobilana

Last reported at 2018-Jun-16 07:58 UTC. Time now 2018-Jun-19 15:46 UTC.
Position N 47°21' W 007°26'.

Length 195 m; draft 7.4 m.

Type: Cargo ship. MMSI: 235088041.

Date/timePositionNaut miles runAvg speedWind from/ knotsBaromVisibWave heightAir tempDewpointWater temp
2018-Jun-16 07:58N 47°21' W 007°26'10912.3
2018-Jun-15 23:07N 48°55' W 006°05'414.3
2018-Jun-15 22:50N 48°59' W 006°02'7612.4
2018-Jun-15 16:43N 49°32' W 004°17'2112.2
2018-Jun-15 14:59N 49°43' W 003°50'714.0
2018-Jun-15 14:29N 49°46' W 003°40'714.6
2018-Jun-15 14:00N 49°49' W 003°30'714.9
2018-Jun-15 13:30N 49°52' W 003°20'714.9
2018-Jun-15 13:00N 49°56' W 003°10'714.8
2018-Jun-15 12:30N 49°59' W 002°59'714.3
2018-Jun-15 12:00N 50°01' W 002°48'713.5
2018-Jun-15 11:30N 50°03' W 002°38'812.6
2018-Jun-15 10:54N 50°05' W 002°27'2810.0
2018-Jun-15 08:04N 50°12' W 001°45'110.0
2018-Jun-15 07:58N 50°13' W 001°43'610.1
2018-Jun-15 07:21N 50°15' W 001°34'3013.2
2018-Jun-15 05:06N 50°23' W 000°49'415.8
2018-Jun-15 04:51N 50°24' W 000°43'615.8
2018-Jun-15 04:29N 50°26' W 000°35'815.8
2018-Jun-15 04:00N 50°28' W 000°23'1115.2
2018-Jun-15 03:16N 50°30' W 000°06'415.2
2018-Jun-15 02:59N 50°31' E 000°01'715.1
2018-Jun-15 02:30N 50°33' E 000°12'714.7
2018-Jun-15 02:00N 50°35' E 000°23'714.2
2018-Jun-15 01:30N 50°37' E 000°34'713.7
2018-Jun-15 01:00N 50°41' E 000°43'713.1
2018-Jun-15 00:30N 50°44' E 000°51'612.5
2018-Jun-15 00:00N 50°48' E 000°59'612.1
2018-Jun-14 23:30N 50°52' E 001°06'612.1
2018-Jun-14 23:00N 50°56' E 001°13'612.1
2018-Jun-14 22:30N 51°00' E 001°20'713.2
2018-Jun-14 22:00N 51°04' E 001°29'714.7
2018-Jun-14 21:30N 51°09' E 001°38'815.4
2018-Jun-14 21:00N 51°14' E 001°47'815.7
2018-Jun-14 20:30N 51°21' E 001°53'713.2
2018-Jun-14 20:00N 51°25' E 002°01'713.3
2018-Jun-14 19:31N 51°22' E 002°10'713.2
2018-Jun-14 19:00N 51°21' E 002°21'714.0
2018-Jun-14 18:30N 51°23' E 002°32'713.5
2018-Jun-14 18:00N 51°23' E 002°43'611.6
2018-Jun-14 17:30N 51°23' E 002°52'713.3
2018-Jun-14 17:00N 51°24' E 003°02'612.3
2018-Jun-14 16:30N 51°22' E 003°11'1 2.0
2018-Jun-14 15:53N 51°21' E 003°11'0 0.0
2018-Jun-14 15:29N 51°21' E 003°11'0 0.0
2018-Jun-14 14:59N 51°21' E 003°11'0 0.0
2018-Jun-14 14:29N 51°21' E 003°11'0 0.0
2018-Jun-14 13:59N 51°21' E 003°11'0 0.0
2018-Jun-14 13:23N 51°21' E 003°11'0 0.0
2018-Jun-14 12:59N 51°21' E 003°11'0 0.0
2018-Jun-14 12:26N 51°21' E 003°11'0 0.0
2018-Jun-14 11:59N 51°21' E 003°11'0 0.0
2018-Jun-14 11:26N 51°21' E 003°11'0 0.0
2018-Jun-14 10:56N 51°21' E 003°11'0 0.0
2018-Jun-14 10:26N 51°21' E 003°11'0 0.0
2018-Jun-14 09:59N 51°21' E 003°11'0 0.0
2018-Jun-14 09:29N 51°21' E 003°11'0 0.0
2018-Jun-14 08:59N 51°21' E 003°11'0 0.0
2018-Jun-14 08:11N 51°21' E 003°11'0 0.0
2018-Jun-14 07:56N 51°21' E 003°11'0 0.0
2018-Jun-14 07:26N 51°21' E 003°11'0 0.0
2018-Jun-14 06:59N 51°21' E 003°11'0 0.0
2018-Jun-14 06:23N 51°21' E 003°11'0 0.0
2018-Jun-14 05:59N 51°21' E 003°11'0 0.0
2018-Jun-14 05:26N 51°21' E 003°11'0 0.0
2018-Jun-14 04:59N 51°21' E 003°11'0 0.0
2018-Jun-14 04:29N 51°21' E 003°11'0 0.0
2018-Jun-14 03:59N 51°21' E 003°11'0 0.0
2018-Jun-14 03:26N 51°21' E 003°11'0 0.0
2018-Jun-14 02:59N 51°21' E 003°11'0 0.0
2018-Jun-14 02:26N 51°21' E 003°11'0 0.0
2018-Jun-14 01:59N 51°21' E 003°11'0 0.0
2018-Jun-14 01:29N 51°21' E 003°11'0 0.0
2018-Jun-14 00:59N 51°21' E 003°11'0 0.0
2018-Jun-14 00:29N 51°21' E 003°11'0 0.0
2018-Jun-13 23:59N 51°21' E 003°11'0 0.0
2018-Jun-13 23:26N 51°21' E 003°11'0 0.0
2018-Jun-13 22:59N 51°21' E 003°11'0 0.0
2018-Jun-13 22:29N 51°21' E 003°11'0 0.0
2018-Jun-13 21:56N 51°21' E 003°11'0 0.0
2018-Jun-13 21:26N 51°21' E 003°11'0 0.0
2018-Jun-13 20:59N 51°21' E 003°11'0 0.0
2018-Jun-13 20:26N 51°21' E 003°11'0 0.0
2018-Jun-13 19:59N 51°21' E 003°11'0 0.0
2018-Jun-13 19:20N 51°21' E 003°11'0 0.0
2018-Jun-13 18:56N 51°21' E 003°11'0 0.0
2018-Jun-13 18:26N 51°21' E 003°11'0 0.0
2018-Jun-13 17:59N 51°21' E 003°11'0 0.0
2018-Jun-13 17:23N 51°21' E 003°11'0 0.0
2018-Jun-13 16:56N 51°21' E 003°11'0 0.0
2018-Jun-13 16:26N 51°21' E 003°11'0 0.0
2018-Jun-13 15:59N 51°21' E 003°11'0 0.0
2018-Jun-13 15:26N 51°21' E 003°11'0 0.0
2018-Jun-13 14:47N 51°21' E 003°11'0 0.0
2018-Jun-13 14:29N 51°21' E 003°11'0 0.0
2018-Jun-13 13:50N 51°21' E 003°11'0 0.0
2018-Jun-13 13:26N 51°21' E 003°11'0 0.0
2018-Jun-13 12:59N 51°21' E 003°11'0 0.0
2018-Jun-13 12:29N 51°21' E 003°11'0 0.0
2018-Jun-13 11:59N 51°21' E 003°11'0 0.0
2018-Jun-13 11:23N 51°21' E 003°11'0 0.0
2018-Jun-13 10:59N 51°21' E 003°11'0 0.0
2018-Jun-13 10:29N 51°21' E 003°11'0 0.0
2018-Jun-13 10:00N 51°21' E 003°11'0 0.0
2018-Jun-13 09:24N 51°21' E 003°11'0 0.0
2018-Jun-13 08:57N 51°21' E 003°11'0 0.0
2018-Jun-13 08:30N 51°21' E 003°11'0 0.0
2018-Jun-13 08:00N 51°21' E 003°11'0 0.0
2018-Jun-13 07:27N 51°21' E 003°11'0 0.0
2018-Jun-13 06:54N 51°21' E 003°11'0 0.0
2018-Jun-13 06:27N 51°21' E 003°11'0 0.0
2018-Jun-13 05:51N 51°21' E 003°11'0 0.0
2018-Jun-13 05:30N 51°21' E 003°11'0 0.0
2018-Jun-13 05:00N 51°21' E 003°11'0 0.0
2018-Jun-13 04:30N 51°21' E 003°11'0 0.0
2018-Jun-13 03:57N 51°21' E 003°11'0 0.0
2018-Jun-13 03:30N 51°21' E 003°11'0 0.0
2018-Jun-13 02:54N 51°21' E 003°11'0 0.0
2018-Jun-13 02:30N 51°21' E 003°11'0 0.0
2018-Jun-13 01:57N 51°21' E 003°11'0 0.0
2018-Jun-13 01:30N 51°21' E 003°11'0 0.0
2018-Jun-13 00:57N 51°21' E 003°11'0 0.0
2018-Jun-13 00:30N 51°21' E 003°11'0 0.0
2018-Jun-12 23:54N 51°21' E 003°11'0 0.0
2018-Jun-12 23:27N 51°21' E 003°11'0 0.0
2018-Jun-12 23:00N 51°21' E 003°11'0 0.0
2018-Jun-12 22:27N 51°21' E 003°11'0 0.0
2018-Jun-12 22:00N 51°21' E 003°11'0 0.0
2018-Jun-12 21:30N 51°21' E 003°11'0 0.0
2018-Jun-12 20:54N 51°21' E 003°11'0 0.0
2018-Jun-12 20:30N 51°21' E 003°11'0 0.0
2018-Jun-12 19:57N 51°21' E 003°11'0 0.0
2018-Jun-12 19:27N 51°21' E 003°11'0 0.0
2018-Jun-12 19:00N 51°21' E 003°11'0 0.0
2018-Jun-12 18:30N 51°21' E 003°11'0 0.0
2018-Jun-12 18:00N 51°21' E 003°11'0 0.0
2018-Jun-12 17:30N 51°21' E 003°11'0 0.0
2018-Jun-12 17:00N 51°21' E 003°11'0 0.0
2018-Jun-12 16:30N 51°21' E 003°11'0 0.0
2018-Jun-12 15:57N 51°21' E 003°11'0 0.0
2018-Jun-12 15:30N 51°21' E 003°11'0 0.0
2018-Jun-12 14:51N 51°21' E 003°11'0 0.0
2018-Jun-12 14:27N 51°21' E 003°11'0 0.0
2018-Jun-12 13:57N 51°21' E 003°11'0 0.0
2018-Jun-12 13:21N 51°21' E 003°11'0 0.0
2018-Jun-12 13:00N 51°21' E 003°11'0 0.0
2018-Jun-12 12:24N 51°21' E 003°11'0 0.0
2018-Jun-12 11:54N 51°21' E 003°11'0 0.0
2018-Jun-12 11:30N 51°21' E 003°11'0 0.0
2018-Jun-12 11:00N 51°21' E 003°11'0 0.0
2018-Jun-12 10:30N 51°21' E 003°11'0 0.0
2018-Jun-12 10:00N 51°21' E 003°11'0 0.0
2018-Jun-12 09:30N 51°21' E 003°11'0 0.0
2018-Jun-12 08:57N 51°21' E 003°11'0 0.0
2018-Jun-12 08:21N 51°21' E 003°11'0 0.0
2018-Jun-12 08:00N 51°21' E 003°11'0 0.0
2018-Jun-12 07:30N 51°21' E 003°11'0 0.0
2018-Jun-12 06:57N 51°21' E 003°11'0 0.0
2018-Jun-12 06:30N 51°21' E 003°11'0 0.0
2018-Jun-12 06:00N 51°21' E 003°11'0 0.0
2018-Jun-12 05:30N 51°21' E 003°11'0 0.0
2018-Jun-12 04:57N 51°21' E 003°11'0 0.0
2018-Jun-12 04:09N 51°21' E 003°11'0 0.0
2018-Jun-12 03:57N 51°21' E 003°11'0 0.0
2018-Jun-12 03:30N 51°21' E 003°11'0 0.0
2018-Jun-12 03:00N 51°21' E 003°11'0 0.0
2018-Jun-12 02:30N 51°21' E 003°11'0 0.0
2018-Jun-12 02:00N 51°21' E 003°11'0 0.0
2018-Jun-12 01:30N 51°21' E 003°11'1 1.6
2018-Jun-12 01:00N 51°21' E 003°12'3 6.0
2018-Jun-12 00:30N 51°24' E 003°10'612.0
2018-Jun-12 00:00N 51°24' E 003°20'612.4
2018-Jun-11 23:30N 51°25' E 003°30'5 9.2
2018-Jun-11 23:00N 51°26' E 003°37'3 6.2
2018-Jun-11 22:30N 51°28' E 003°41'0 0.3
2018-Jun-11 21:59N 51°28' E 003°42'0 0.0
2018-Jun-11 21:29N 51°28' E 003°42'0 0.0
2018-Jun-11 20:59N 51°28' E 003°42'0 0.0
2018-Jun-11 20:29N 51°28' E 003°42'0 0.0
2018-Jun-11 19:59N 51°28' E 003°42'0 0.0
2018-Jun-11 19:29N 51°28' E 003°42'0 0.0
2018-Jun-11 18:59N 51°28' E 003°42'0 0.0
2018-Jun-11 18:29N 51°28' E 003°42'0 0.0
2018-Jun-11 17:59N 51°28' E 003°42'0 0.0
2018-Jun-11 17:26N 51°28' E 003°42'0 0.0
2018-Jun-11 16:56N 51°28' E 003°42'0 0.0
2018-Jun-11 16:29N 51°28' E 003°42'0 0.0
2018-Jun-11 15:56N 51°28' E 003°42'0 0.0
2018-Jun-11 15:29N 51°28' E 003°42'0 0.0
2018-Jun-11 14:59N 51°28' E 003°42'0 0.0
2018-Jun-11 14:29N 51°28' E 003°42'0 0.0
2018-Jun-11 13:56N 51°28' E 003°42'0 0.0
2018-Jun-11 13:29N 51°28' E 003°42'0 0.0
2018-Jun-11 12:56N 51°28' E 003°42'0 0.0
2018-Jun-11 12:29N 51°28' E 003°42'0 0.0
2018-Jun-11 11:56N 51°28' E 003°42'0 0.0
2018-Jun-11 11:23N 51°28' E 003°42'0 0.0
2018-Jun-11 10:59N 51°28' E 003°42'0 0.0
2018-Jun-11 10:29N 51°28' E 003°42'0 0.0
2018-Jun-11 09:59N 51°28' E 003°42'0 0.0
2018-Jun-11 09:26N 51°28' E 003°42'0 0.0
2018-Jun-11 08:59N 51°28' E 003°42'0 0.0
2018-Jun-11 08:26N 51°28' E 003°42'0 0.0
2018-Jun-11 07:59N 51°28' E 003°42'0 0.0
2018-Jun-11 07:26N 51°28' E 003°42'0 0.0
2018-Jun-11 06:59N 51°28' E 003°42'0 0.0
2018-Jun-11 06:29N 51°28' E 003°42'0 0.0
2018-Jun-11 05:59N 51°28' E 003°42'0 0.0
2018-Jun-11 05:26N 51°28' E 003°42'0 0.0
2018-Jun-11 04:56N 51°28' E 003°42'0 0.0
2018-Jun-11 04:26N 51°28' E 003°42'0 0.0
2018-Jun-11 03:59N 51°28' E 003°42'0 0.0
2018-Jun-11 03:29N 51°28' E 003°42'0 0.0
2018-Jun-11 02:59N 51°28' E 003°42'0 0.0
2018-Jun-11 02:26N 51°28' E 003°42'0 0.0
2018-Jun-11 01:53N 51°28' E 003°42'0 0.0
2018-Jun-11 01:29N 51°28' E 003°42'0 0.0
2018-Jun-11 00:59N 51°28' E 003°42'0 0.0
2018-Jun-11 00:29N 51°28' E 003°42'0 0.0
2018-Jun-10 23:59N 51°28' E 003°42'0 0.0
2018-Jun-10 23:29N 51°28' E 003°42'0 0.0
2018-Jun-10 22:59N 51°28' E 003°42'0 0.0
2018-Jun-10 22:29N 51°28' E 003°42'0 0.0
2018-Jun-10 21:59N 51°28' E 003°42'0 0.0
2018-Jun-10 21:29N 51°28' E 003°42'0 0.0
2018-Jun-10 20:59N 51°28' E 003°42'0 0.0
2018-Jun-10 20:23N 51°28' E 003°42'0 0.0
2018-Jun-10 19:59N 51°28' E 003°42'0 0.0
2018-Jun-10 19:29N 51°28' E 003°42'0 0.0
2018-Jun-10 18:56N 51°28' E 003°42'0 0.0
2018-Jun-10 18:29N 51°28' E 003°42'0 0.0
2018-Jun-10 17:59N 51°28' E 003°42'0 0.0
2018-Jun-10 17:29N 51°28' E 003°42'0 0.0
2018-Jun-10 16:59N 51°28' E 003°42'0 0.0
2018-Jun-10 16:29N 51°28' E 003°42'0 0.0
2018-Jun-10 15:59N 51°28' E 003°42'0 0.0
2018-Jun-10 15:29N 51°28' E 003°42'0 0.0
2018-Jun-10 14:59N 51°28' E 003°42'0 0.0
2018-Jun-10 13:59N 51°28' E 003°42'0 0.0
2018-Jun-10 13:29N 51°28' E 003°42'0 0.0
2018-Jun-10 12:59N 51°28' E 003°42'0 0.0
2018-Jun-10 12:29N 51°28' E 003°42'0 0.0
2018-Jun-10 11:59N 51°28' E 003°42'0 0.0
2018-Jun-10 11:29N 51°28' E 003°42'0 0.0
2018-Jun-10 10:59N 51°28' E 003°42'0 0.0
2018-Jun-10 10:29N 51°28' E 003°42'0 0.0
2018-Jun-10 09:59N 51°28' E 003°42'0 0.0
2018-Jun-10 09:29N 51°28' E 003°42'0 0.0
2018-Jun-10 08:59N 51°28' E 003°42'0 0.0
2018-Jun-10 08:29N 51°28' E 003°42'0 0.0
2018-Jun-10 07:56N 51°28' E 003°42'0 0.0
2018-Jun-10 07:23N 51°28' E 003°42'0 0.0
2018-Jun-10 06:56N 51°28' E 003°42'0 0.0
2018-Jun-10 06:29N 51°28' E 003°42'0 0.0
2018-Jun-10 05:59N 51°28' E 003°42'0 0.0
2018-Jun-10 05:26N 51°28' E 003°42'0 0.0
2018-Jun-10 04:59N 51°28' E 003°42'0 0.0
2018-Jun-10 04:29N 51°28' E 003°42'0 0.0
2018-Jun-10 03:59N 51°28' E 003°42'0 0.0
2018-Jun-10 03:20N 51°28' E 003°42'0 0.0
2018-Jun-10 02:56N 51°28' E 003°42'0 0.0
2018-Jun-10 02:29N 51°28' E 003°42'0 0.0
2018-Jun-10 01:59N 51°28' E 003°42'0 0.0
2018-Jun-10 01:29N 51°28' E 003°42'0 0.0
2018-Jun-10 00:59N 51°28' E 003°42'0 0.0
2018-Jun-10 00:29N 51°28' E 003°42'0 0.0
2018-Jun-09 23:59N 51°28' E 003°42'0 0.0
2018-Jun-09 23:29N 51°28' E 003°42'0 0.0
2018-Jun-09 22:56N 51°28' E 003°42'0 0.0
2018-Jun-09 22:29N 51°28' E 003°42'0 0.0
2018-Jun-09 21:56N 51°28' E 003°42'0 0.0
2018-Jun-09 21:29N 51°28' E 003°42'0 0.0
2018-Jun-09 20:59N 51°28' E 003°42'0 0.0
2018-Jun-09 20:23N 51°28' E 003°42'0 0.0
2018-Jun-09 19:56N 51°28' E 003°42'0 0.0
2018-Jun-09 19:26N 51°28' E 003°42'0 0.0
2018-Jun-09 18:59N 51°28' E 003°42'0 0.0
2018-Jun-09 18:29N 51°28' E 003°42'0 0.0
2018-Jun-09 17:59N 51°28' E 003°42'0 0.0
2018-Jun-09 17:29N 51°28' E 003°42'0 0.0
2018-Jun-09 16:59N 51°28' E 003°42'0 0.0
2018-Jun-09 16:26N 51°28' E 003°42'0 0.0
2018-Jun-09 15:56N 51°28' E 003°42'0 0.0
2018-Jun-09 14:59N 51°28' E 003°42'0 0.0
2018-Jun-09 14:29N 51°28' E 003°42'0 0.0
2018-Jun-09 13:59N 51°28' E 003°42'0 0.0
2018-Jun-09 13:29N 51°28' E 003°42'0 0.0
2018-Jun-09 12:59N 51°28' E 003°42'0 0.0
2018-Jun-09 12:29N 51°28' E 003°42'0 0.0
2018-Jun-09 11:59N 51°28' E 003°42'0 0.0
2018-Jun-09 11:29N 51°28' E 003°42'0 0.0
2018-Jun-09 10:59N 51°28' E 003°42'0 0.0
2018-Jun-09 10:29N 51°28' E 003°42'0 0.0
2018-Jun-09 09:59N 51°28' E 003°42'0 0.0
2018-Jun-09 09:26N 51°28' E 003°42'0 0.0
2018-Jun-09 08:59N 51°28' E 003°42'0 0.0
2018-Jun-09 08:23N 51°28' E 003°42'0 0.0
2018-Jun-09 07:59N 51°28' E 003°42'0 0.0
2018-Jun-09 07:29N 51°28' E 003°42'0 0.0
2018-Jun-09 06:56N 51°28' E 003°42'0 0.0
2018-Jun-09 06:20N 51°28' E 003°42'0 0.0
2018-Jun-09 05:56N 51°28' E 003°42'0 0.0
2018-Jun-09 05:29N 51°28' E 003°42'0 0.0
2018-Jun-09 04:59N 51°28' E 003°42'0 0.0
2018-Jun-09 04:29N 51°28' E 003°42'0 0.0
2018-Jun-09 03:59N 51°28' E 003°42'0 0.0
2018-Jun-09 03:29N 51°28' E 003°42'0 0.0
2018-Jun-09 02:56N 51°28' E 003°42'0 0.0
2018-Jun-09 02:29N 51°28' E 003°42'0 0.0
2018-Jun-09 01:59N 51°28' E 003°42'0 0.0
2018-Jun-09 01:26N 51°28' E 003°42'0 0.0
2018-Jun-09 00:59N 51°28' E 003°42'0 0.0
2018-Jun-09 00:26N 51°28' E 003°42'0 0.0
2018-Jun-08 23:56N 51°28' E 003°42'0 0.0
2018-Jun-08 23:29N 51°28' E 003°42'0 0.0
2018-Jun-08 22:59N 51°28' E 003°42'0 0.0
2018-Jun-08 22:26N 51°28' E 003°42'0 0.0
2018-Jun-08 21:59N 51°28' E 003°42'0 0.0
2018-Jun-08 21:29N 51°28' E 003°42'0 0.0
2018-Jun-08 20:59N 51°28' E 003°42'0 0.0
2018-Jun-08 20:29N 51°28' E 003°42'0 0.0
2018-Jun-08 19:53N 51°28' E 003°42'0 0.0
2018-Jun-08 19:29N 51°28' E 003°42'0 0.0
2018-Jun-08 18:59N 51°28' E 003°42'0 0.0
2018-Jun-08 18:26N 51°28' E 003°42'0 0.0
2018-Jun-08 17:50N 51°28' E 003°42'0 0.0
2018-Jun-08 17:26N 51°28' E 003°42'0 0.0
2018-Jun-08 16:59N 51°28' E 003°42'0 0.0
2018-Jun-08 16:29N 51°28' E 003°42'0 0.0
2018-Jun-08 15:59N 51°28' E 003°42'0 0.0
2018-Jun-08 15:29N 51°28' E 003°42'0 0.0
2018-Jun-08 14:59N 51°28' E 003°42'0 0.0
2018-Jun-08 14:29N 51°28' E 003°42'0 0.0
2018-Jun-08 13:56N 51°28' E 003°42'0 0.0
2018-Jun-08 13:23N 51°28' E 003°42'0 0.0
2018-Jun-08 12:59N 51°28' E 003°42'0 0.0
2018-Jun-08 12:29N 51°28' E 003°42'0 0.0
2018-Jun-08 11:56N 51°28' E 003°42'0 0.0
2018-Jun-08 11:26N 51°28' E 003°42'0 0.0
2018-Jun-08 10:59N 51°28' E 003°42'0 0.0
2018-Jun-08 10:29N 51°28' E 003°42'0 0.0
2018-Jun-08 09:59N 51°28' E 003°42'0 0.0
2018-Jun-08 09:29N 51°28' E 003°42'0 0.0
2018-Jun-08 08:59N 51°28' E 003°42'0 0.0
2018-Jun-08 08:29N 51°28' E 003°42'0 0.0
2018-Jun-08 07:59N 51°28' E 003°42'0 0.0
2018-Jun-08 07:30N 51°28' E 003°42'1 1.3
2018-Jun-08 07:00N 51°27' E 003°41'3 6.5
2018-Jun-08 06:30N 51°26' E 003°36'611.7
2018-Jun-08 06:00N 51°25' E 003°27'612.6
2018-Jun-08 05:30N 51°24' E 003°17'611.7
2018-Jun-08 05:00N 51°24' E 003°07'5 9.8
2018-Jun-08 04:30N 51°23' E 002°60'510.2
2018-Jun-08 04:01N 51°22' E 002°52'5 9.9
2018-Jun-08 03:28N 51°21' E 002°43'4 7.9
2018-Jun-08 03:00N 51°22' E 002°38'5 9.5
2018-Jun-08 02:30N 51°22' E 002°30'5 9.3
2018-Jun-08 02:00N 51°20' E 002°23'5 9.4
2018-Jun-08 01:30N 51°17' E 002°17'611.5
2018-Jun-08 01:00N 51°14' E 002°09'612.5
2018-Jun-08 00:30N 51°11' E 002°01'612.5
2018-Jun-08 00:00N 51°09' E 001°52'612.4
2018-Jun-07 23:30N 51°04' E 001°44'612.8
2018-Jun-07 23:00N 50°60' E 001°37'713.0
2018-Jun-07 22:29N 50°55' E 001°30'613.1
2018-Jun-07 22:01N 50°49' E 001°26'713.3
2018-Jun-07 21:30N 50°43' E 001°22'2112.6
2018-Jun-07 19:49N 50°30' E 000°56'412.9
2018-Jun-07 19:29N 50°28' E 000°49'1212.9
2018-Jun-07 18:33N 50°25' E 000°31'213.9
2018-Jun-07 18:25N 50°24' E 000°28'2114.5
2018-Jun-07 17:00N 50°19' W 000°03'915.1
2018-Jun-07 16:24N 50°17' W 000°17'715.5
2018-Jun-07 15:55N 50°15' W 000°28'1416.0
2018-Jun-07 15:04N 50°11' W 000°48'116.5
2018-Jun-07 15:00N 50°11' W 000°50'816.3
2018-Jun-07 14:30N 50°09' W 001°02'816.4
2018-Jun-07 14:00N 50°07' W 001°15'816.4
2018-Jun-07 13:30N 50°05' W 001°27'816.6
2018-Jun-07 13:00N 50°03' W 001°40'816.2
2018-Jun-07 12:30N 50°01' W 001°52'815.9
2018-Jun-07 12:00N 49°59' W 002°04'3014.9
2018-Jun-07 09:58N 49°49' W 002°48'714.3
2018-Jun-07 09:27N 49°46' W 002°59'914.3
2018-Jun-07 08:48N 49°42' W 003°11'414.3
2018-Jun-07 08:30N 49°40' W 003°17'7214.2
2018-Jun-07 03:25N 49°03' W 004°53'614.1
2018-Jun-07 03:00N 49°01' W 005°01'714.1
2018-Jun-07 02:31N 48°57' W 005°10'814.1
2018-Jun-07 01:58N 48°54' W 005°20'613.9
2018-Jun-07 01:30N 48°50' W 005°28'814.0
2018-Jun-07 00:58N 48°45' W 005°36'1413.9
2018-Jun-06 23:59N 48°33' W 005°48'3714.4
2018-Jun-06 21:23N 48°02' W 006°20'615.0
2018-Jun-06 20:58N 47°57' W 006°24'  
Track history (hours):
 
Tides and Currents Weather Stations Pressure Air Temp Water Temp Dewpoint Dewpoint Depression Visibility Wind Speed Wind Dir Waves Ship Positions

Mobilana

Last reported at 2018-Jun-16 07:58 UTC. Time now 2018-Jun-19 15:46 UTC.
Position N 47°21' W 007°26'.

Length 195 m; draft 7.4 m.

Type: Cargo ship. MMSI: 235088041.

Date/timePositionNaut miles runAvg speedWind from/ knotsBaromVisibWave heightAir tempDewpointWater temp
2018-Jun-16 07:58N 47°21' W 007°26'10912.3
2018-Jun-15 23:07N 48°55' W 006°05'414.3
2018-Jun-15 22:50N 48°59' W 006°02'7612.4
2018-Jun-15 16:43N 49°32' W 004°17'2112.2
2018-Jun-15 14:59N 49°43' W 003°50'714.0
2018-Jun-15 14:29N 49°46' W 003°40'714.6
2018-Jun-15 14:00N 49°49' W 003°30'714.9
2018-Jun-15 13:30N 49°52' W 003°20'714.9
2018-Jun-15 13:00N 49°56' W 003°10'714.8
2018-Jun-15 12:30N 49°59' W 002°59'714.3
2018-Jun-15 12:00N 50°01' W 002°48'713.5
2018-Jun-15 11:30N 50°03' W 002°38'812.6
2018-Jun-15 10:54N 50°05' W 002°27'2810.0
2018-Jun-15 08:04N 50°12' W 001°45'110.0
2018-Jun-15 07:58N 50°13' W 001°43'610.1
2018-Jun-15 07:21N 50°15' W 001°34'3013.2
2018-Jun-15 05:06N 50°23' W 000°49'415.8
2018-Jun-15 04:51N 50°24' W 000°43'615.8
2018-Jun-15 04:29N 50°26' W 000°35'815.8
2018-Jun-15 04:00N 50°28' W 000°23'1115.2
2018-Jun-15 03:16N 50°30' W 000°06'415.2
2018-Jun-15 02:59N 50°31' E 000°01'715.1
2018-Jun-15 02:30N 50°33' E 000°12'714.7
2018-Jun-15 02:00N 50°35' E 000°23'714.2
2018-Jun-15 01:30N 50°37' E 000°34'713.7
2018-Jun-15 01:00N 50°41' E 000°43'713.1
2018-Jun-15 00:30N 50°44' E 000°51'612.5
2018-Jun-15 00:00N 50°48' E 000°59'612.1
2018-Jun-14 23:30N 50°52' E 001°06'612.1
2018-Jun-14 23:00N 50°56' E 001°13'612.1
2018-Jun-14 22:30N 51°00' E 001°20'713.2
2018-Jun-14 22:00N 51°04' E 001°29'714.7
2018-Jun-14 21:30N 51°09' E 001°38'815.4
2018-Jun-14 21:00N 51°14' E 001°47'815.7
2018-Jun-14 20:30N 51°21' E 001°53'713.2
2018-Jun-14 20:00N 51°25' E 002°01'713.3
2018-Jun-14 19:31N 51°22' E 002°10'713.2
2018-Jun-14 19:00N 51°21' E 002°21'714.0
2018-Jun-14 18:30N 51°23' E 002°32'713.5
2018-Jun-14 18:00N 51°23' E 002°43'611.6
2018-Jun-14 17:30N 51°23' E 002°52'713.3
2018-Jun-14 17:00N 51°24' E 003°02'612.3
2018-Jun-14 16:30N 51°22' E 003°11'1 2.0
2018-Jun-14 15:53N 51°21' E 003°11'0 0.0
2018-Jun-14 15:29N 51°21' E 003°11'0 0.0
2018-Jun-14 14:59N 51°21' E 003°11'0 0.0
2018-Jun-14 14:29N 51°21' E 003°11'0 0.0
2018-Jun-14 13:59N 51°21' E 003°11'0 0.0
2018-Jun-14 13:23N 51°21' E 003°11'0 0.0
2018-Jun-14 12:59N 51°21' E 003°11'0 0.0
2018-Jun-14 12:26N 51°21' E 003°11'0 0.0
2018-Jun-14 11:59N 51°21' E 003°11'0 0.0
2018-Jun-14 11:26N 51°21' E 003°11'0 0.0
2018-Jun-14 10:56N 51°21' E 003°11'0 0.0
2018-Jun-14 10:26N 51°21' E 003°11'0 0.0
2018-Jun-14 09:59N 51°21' E 003°11'0 0.0
2018-Jun-14 09:29N 51°21' E 003°11'0 0.0
2018-Jun-14 08:59N 51°21' E 003°11'0 0.0
2018-Jun-14 08:11N 51°21' E 003°11'0 0.0
2018-Jun-14 07:56N 51°21' E 003°11'0 0.0
2018-Jun-14 07:26N 51°21' E 003°11'0 0.0
2018-Jun-14 06:59N 51°21' E 003°11'0 0.0
2018-Jun-14 06:23N 51°21' E 003°11'0 0.0
2018-Jun-14 05:59N 51°21' E 003°11'0 0.0
2018-Jun-14 05:26N 51°21' E 003°11'0 0.0
2018-Jun-14 04:59N 51°21' E 003°11'0 0.0
2018-Jun-14 04:29N 51°21' E 003°11'0 0.0
2018-Jun-14 03:59N 51°21' E 003°11'0 0.0
2018-Jun-14 03:26N 51°21' E 003°11'0 0.0
2018-Jun-14 02:59N 51°21' E 003°11'0 0.0
2018-Jun-14 02:26N 51°21' E 003°11'0 0.0
2018-Jun-14 01:59N 51°21' E 003°11'0 0.0
2018-Jun-14 01:29N 51°21' E 003°11'0 0.0
2018-Jun-14 00:59N 51°21' E 003°11'0 0.0
2018-Jun-14 00:29N 51°21' E 003°11'0 0.0
2018-Jun-13 23:59N 51°21' E 003°11'0 0.0
2018-Jun-13 23:26N 51°21' E 003°11'0 0.0
2018-Jun-13 22:59N 51°21' E 003°11'0 0.0
2018-Jun-13 22:29N 51°21' E 003°11'0 0.0
2018-Jun-13 21:56N 51°21' E 003°11'0 0.0
2018-Jun-13 21:26N 51°21' E 003°11'0 0.0
2018-Jun-13 20:59N 51°21' E 003°11'0 0.0
2018-Jun-13 20:26N 51°21' E 003°11'0 0.0
2018-Jun-13 19:59N 51°21' E 003°11'0 0.0
2018-Jun-13 19:20N 51°21' E 003°11'0 0.0
2018-Jun-13 18:56N 51°21' E 003°11'0 0.0
2018-Jun-13 18:26N 51°21' E 003°11'0 0.0
2018-Jun-13 17:59N 51°21' E 003°11'0 0.0
2018-Jun-13 17:23N 51°21' E 003°11'0 0.0
2018-Jun-13 16:56N 51°21' E 003°11'0 0.0
2018-Jun-13 16:26N 51°21' E 003°11'0 0.0
2018-Jun-13 15:59N 51°21' E 003°11'0 0.0
2018-Jun-13 15:26N 51°21' E 003°11'0 0.0
2018-Jun-13 14:47N 51°21' E 003°11'0 0.0
2018-Jun-13 14:29N 51°21' E 003°11'0 0.0
2018-Jun-13 13:50N 51°21' E 003°11'0 0.0
2018-Jun-13 13:26N 51°21' E 003°11'0 0.0
2018-Jun-13 12:59N 51°21' E 003°11'0 0.0
2018-Jun-13 12:29N 51°21' E 003°11'0 0.0
2018-Jun-13 11:59N 51°21' E 003°11'0 0.0
2018-Jun-13 11:23N 51°21' E 003°11'0 0.0
2018-Jun-13 10:59N 51°21' E 003°11'0 0.0
2018-Jun-13 10:29N 51°21' E 003°11'0 0.0
2018-Jun-13 10:00N 51°21' E 003°11'0 0.0
2018-Jun-13 09:24N 51°21' E 003°11'0 0.0
2018-Jun-13 08:57N 51°21' E 003°11'0 0.0
2018-Jun-13 08:30N 51°21' E 003°11'0 0.0
2018-Jun-13 08:00N 51°21' E 003°11'0 0.0
2018-Jun-13 07:27N 51°21' E 003°11'0 0.0
2018-Jun-13 06:54N 51°21' E 003°11'0 0.0
2018-Jun-13 06:27N 51°21' E 003°11'0 0.0
2018-Jun-13 05:51N 51°21' E 003°11'0 0.0
2018-Jun-13 05:30N 51°21' E 003°11'0 0.0
2018-Jun-13 05:00N 51°21' E 003°11'0 0.0
2018-Jun-13 04:30N 51°21' E 003°11'0 0.0
2018-Jun-13 03:57N 51°21' E 003°11'0 0.0
2018-Jun-13 03:30N 51°21' E 003°11'0 0.0
2018-Jun-13 02:54N 51°21' E 003°11'0 0.0
2018-Jun-13 02:30N 51°21' E 003°11'0 0.0
2018-Jun-13 01:57N 51°21' E 003°11'0 0.0
2018-Jun-13 01:30N 51°21' E 003°11'0 0.0
2018-Jun-13 00:57N 51°21' E 003°11'0 0.0
2018-Jun-13 00:30N 51°21' E 003°11'0 0.0
2018-Jun-12 23:54N 51°21' E 003°11'0 0.0
2018-Jun-12 23:27N 51°21' E 003°11'0 0.0
2018-Jun-12 23:00N 51°21' E 003°11'0 0.0
2018-Jun-12 22:27N 51°21' E 003°11'0 0.0
2018-Jun-12 22:00N 51°21' E 003°11'0 0.0
2018-Jun-12 21:30N 51°21' E 003°11'0 0.0
2018-Jun-12 20:54N 51°21' E 003°11'0 0.0
2018-Jun-12 20:30N 51°21' E 003°11'0 0.0
2018-Jun-12 19:57N 51°21' E 003°11'0 0.0
2018-Jun-12 19:27N 51°21' E 003°11'0 0.0
2018-Jun-12 19:00N 51°21' E 003°11'0 0.0
2018-Jun-12 18:30N 51°21' E 003°11'0 0.0
2018-Jun-12 18:00N 51°21' E 003°11'0 0.0
2018-Jun-12 17:30N 51°21' E 003°11'0 0.0
2018-Jun-12 17:00N 51°21' E 003°11'0 0.0
2018-Jun-12 16:30N 51°21' E 003°11'0 0.0
2018-Jun-12 15:57N 51°21' E 003°11'0 0.0
2018-Jun-12 15:30N 51°21' E 003°11'0 0.0
2018-Jun-12 14:51N 51°21' E 003°11'0 0.0
2018-Jun-12 14:27N 51°21' E 003°11'0 0.0
2018-Jun-12 13:57N 51°21' E 003°11'0 0.0
2018-Jun-12 13:21N 51°21' E 003°11'0 0.0
2018-Jun-12 13:00N 51°21' E 003°11'0 0.0
2018-Jun-12 12:24N 51°21' E 003°11'0 0.0
2018-Jun-12 11:54N 51°21' E 003°11'0 0.0
2018-Jun-12 11:30N 51°21' E 003°11'0 0.0
2018-Jun-12 11:00N 51°21' E 003°11'0 0.0
2018-Jun-12 10:30N 51°21' E 003°11'0 0.0
2018-Jun-12 10:00N 51°21' E 003°11'0 0.0
2018-Jun-12 09:30N 51°21' E 003°11'0 0.0
2018-Jun-12 08:57N 51°21' E 003°11'0 0.0
2018-Jun-12 08:21N 51°21' E 003°11'0 0.0
2018-Jun-12 08:00N 51°21' E 003°11'0 0.0
2018-Jun-12 07:30N 51°21' E 003°11'0 0.0
2018-Jun-12 06:57N 51°21' E 003°11'0 0.0
2018-Jun-12 06:30N 51°21' E 003°11'0 0.0
2018-Jun-12 06:00N 51°21' E 003°11'0 0.0
2018-Jun-12 05:30N 51°21' E 003°11'0 0.0
2018-Jun-12 04:57N 51°21' E 003°11'0 0.0
2018-Jun-12 04:09N 51°21' E 003°11'0 0.0
2018-Jun-12 03:57N 51°21' E 003°11'0 0.0
2018-Jun-12 03:30N 51°21' E 003°11'0 0.0
2018-Jun-12 03:00N 51°21' E 003°11'0 0.0
2018-Jun-12 02:30N 51°21' E 003°11'0 0.0
2018-Jun-12 02:00N 51°21' E 003°11'0 0.0
2018-Jun-12 01:30N 51°21' E 003°11'1 1.6
2018-Jun-12 01:00N 51°21' E 003°12'3 6.0
2018-Jun-12 00:30N 51°24' E 003°10'612.0
2018-Jun-12 00:00N 51°24' E 003°20'612.4
2018-Jun-11 23:30N 51°25' E 003°30'5 9.2
2018-Jun-11 23:00N 51°26' E 003°37'3 6.2
2018-Jun-11 22:30N 51°28' E 003°41'0 0.3
2018-Jun-11 21:59N 51°28' E 003°42'0 0.0
2018-Jun-11 21:29N 51°28' E 003°42'0 0.0
2018-Jun-11 20:59N 51°28' E 003°42'0 0.0
2018-Jun-11 20:29N 51°28' E 003°42'0 0.0
2018-Jun-11 19:59N 51°28' E 003°42'0 0.0
2018-Jun-11 19:29N 51°28' E 003°42'0 0.0
2018-Jun-11 18:59N 51°28' E 003°42'0 0.0
2018-Jun-11 18:29N 51°28' E 003°42'0 0.0
2018-Jun-11 17:59N 51°28' E 003°42'0 0.0
2018-Jun-11 17:26N 51°28' E 003°42'0 0.0
2018-Jun-11 16:56N 51°28' E 003°42'0 0.0
2018-Jun-11 16:29N 51°28' E 003°42'0 0.0
2018-Jun-11 15:56N 51°28' E 003°42'0 0.0
2018-Jun-11 15:29N 51°28' E 003°42'0 0.0
2018-Jun-11 14:59N 51°28' E 003°42'0 0.0
2018-Jun-11 14:29N 51°28' E 003°42'0 0.0
2018-Jun-11 13:56N 51°28' E 003°42'0 0.0
2018-Jun-11 13:29N 51°28' E 003°42'0 0.0
2018-Jun-11 12:56N 51°28' E 003°42'0 0.0
2018-Jun-11 12:29N 51°28' E 003°42'0 0.0
2018-Jun-11 11:56N 51°28' E 003°42'0 0.0
2018-Jun-11 11:23N 51°28' E 003°42'0 0.0
2018-Jun-11 10:59N 51°28' E 003°42'0 0.0
2018-Jun-11 10:29N 51°28' E 003°42'0 0.0
2018-Jun-11 09:59N 51°28' E 003°42'0 0.0
2018-Jun-11 09:26N 51°28' E 003°42'0 0.0
2018-Jun-11 08:59N 51°28' E 003°42'0 0.0
2018-Jun-11 08:26N 51°28' E 003°42'0 0.0
2018-Jun-11 07:59N 51°28' E 003°42'0 0.0
2018-Jun-11 07:26N 51°28' E 003°42'0 0.0
2018-Jun-11 06:59N 51°28' E 003°42'0 0.0
2018-Jun-11 06:29N 51°28' E 003°42'0 0.0
2018-Jun-11 05:59N 51°28' E 003°42'0 0.0
2018-Jun-11 05:26N 51°28' E 003°42'0 0.0
2018-Jun-11 04:56N 51°28' E 003°42'0 0.0
2018-Jun-11 04:26N 51°28' E 003°42'0 0.0
2018-Jun-11 03:59N 51°28' E 003°42'0 0.0
2018-Jun-11 03:29N 51°28' E 003°42'0 0.0
2018-Jun-11 02:59N 51°28' E 003°42'0 0.0
2018-Jun-11 02:26N 51°28' E 003°42'0 0.0
2018-Jun-11 01:53N 51°28' E 003°42'0 0.0
2018-Jun-11 01:29N 51°28' E 003°42'0 0.0
2018-Jun-11 00:59N 51°28' E 003°42'0 0.0
2018-Jun-11 00:29N 51°28' E 003°42'0 0.0
2018-Jun-10 23:59N 51°28' E 003°42'0 0.0
2018-Jun-10 23:29N 51°28' E 003°42'0 0.0
2018-Jun-10 22:59N 51°28' E 003°42'0 0.0
2018-Jun-10 22:29N 51°28' E 003°42'0 0.0
2018-Jun-10 21:59N 51°28' E 003°42'0 0.0
2018-Jun-10 21:29N 51°28' E 003°42'0 0.0
2018-Jun-10 20:59N 51°28' E 003°42'0 0.0
2018-Jun-10 20:23N 51°28' E 003°42'0 0.0
2018-Jun-10 19:59N 51°28' E 003°42'0 0.0
2018-Jun-10 19:29N 51°28' E 003°42'0 0.0
2018-Jun-10 18:56N 51°28' E 003°42'0 0.0
2018-Jun-10 18:29N 51°28' E 003°42'0 0.0
2018-Jun-10 17:59N 51°28' E 003°42'0 0.0
2018-Jun-10 17:29N 51°28' E 003°42'0 0.0
2018-Jun-10 16:59N 51°28' E 003°42'0 0.0
2018-Jun-10 16:29N 51°28' E 003°42'0 0.0
2018-Jun-10 15:59N 51°28' E 003°42'0 0.0
2018-Jun-10 15:29N 51°28' E 003°42'0 0.0
2018-Jun-10 14:59N 51°28' E 003°42'0 0.0
2018-Jun-10 13:59N 51°28' E 003°42'0 0.0
2018-Jun-10 13:29N 51°28' E 003°42'0 0.0
2018-Jun-10 12:59N 51°28' E 003°42'0 0.0
2018-Jun-10 12:29N 51°28' E 003°42'0 0.0
2018-Jun-10 11:59N 51°28' E 003°42'0 0.0
2018-Jun-10 11:29N 51°28' E 003°42'0 0.0
2018-Jun-10 10:59N 51°28' E 003°42'0 0.0
2018-Jun-10 10:29N 51°28' E 003°42'0 0.0
2018-Jun-10 09:59N 51°28' E 003°42'0 0.0
2018-Jun-10 09:29N 51°28' E 003°42'0 0.0
2018-Jun-10 08:59N 51°28' E 003°42'0 0.0
2018-Jun-10 08:29N 51°28' E 003°42'0 0.0
2018-Jun-10 07:56N 51°28' E 003°42'0 0.0
2018-Jun-10 07:23N 51°28' E 003°42'0 0.0
2018-Jun-10 06:56N 51°28' E 003°42'0 0.0
2018-Jun-10 06:29N 51°28' E 003°42'0 0.0
2018-Jun-10 05:59N 51°28' E 003°42'0 0.0
2018-Jun-10 05:26N 51°28' E 003°42'0 0.0
2018-Jun-10 04:59N 51°28' E 003°42'0 0.0
2018-Jun-10 04:29N 51°28' E 003°42'0 0.0
2018-Jun-10 03:59N 51°28' E 003°42'0 0.0
2018-Jun-10 03:20N 51°28' E 003°42'0 0.0
2018-Jun-10 02:56N 51°28' E 003°42'0 0.0
2018-Jun-10 02:29N 51°28' E 003°42'0 0.0
2018-Jun-10 01:59N 51°28' E 003°42'0 0.0
2018-Jun-10 01:29N 51°28' E 003°42'0 0.0
2018-Jun-10 00:59N 51°28' E 003°42'0 0.0
2018-Jun-10 00:29N 51°28' E 003°42'0 0.0
2018-Jun-09 23:59N 51°28' E 003°42'0 0.0
2018-Jun-09 23:29N 51°28' E 003°42'0 0.0
2018-Jun-09 22:56N 51°28' E 003°42'0 0.0
2018-Jun-09 22:29N 51°28' E 003°42'0 0.0
2018-Jun-09 21:56N 51°28' E 003°42'0 0.0
2018-Jun-09 21:29N 51°28' E 003°42'0 0.0
2018-Jun-09 20:59N 51°28' E 003°42'0 0.0
2018-Jun-09 20:23N 51°28' E 003°42'0 0.0
2018-Jun-09 19:56N 51°28' E 003°42'0 0.0
2018-Jun-09 19:26N 51°28' E 003°42'0 0.0
2018-Jun-09 18:59N 51°28' E 003°42'0 0.0
2018-Jun-09 18:29N 51°28' E 003°42'0 0.0
2018-Jun-09 17:59N 51°28' E 003°42'0 0.0
2018-Jun-09 17:29N 51°28' E 003°42'0 0.0
2018-Jun-09 16:59N 51°28' E 003°42'0 0.0
2018-Jun-09 16:26N 51°28' E 003°42'0 0.0
2018-Jun-09 15:56N 51°28' E 003°42'0 0.0
2018-Jun-09 14:59N 51°28' E 003°42'0 0.0
2018-Jun-09 14:29N 51°28' E 003°42'0 0.0
2018-Jun-09 13:59N 51°28' E 003°42'0 0.0
2018-Jun-09 13:29N 51°28' E 003°42'0 0.0
2018-Jun-09 12:59N 51°28' E 003°42'0 0.0
2018-Jun-09 12:29N 51°28' E 003°42'0 0.0
2018-Jun-09 11:59N 51°28' E 003°42'0 0.0
2018-Jun-09 11:29N 51°28' E 003°42'0 0.0
2018-Jun-09 10:59N 51°28' E 003°42'0 0.0
2018-Jun-09 10:29N 51°28' E 003°42'0 0.0
2018-Jun-09 09:59N 51°28' E 003°42'0 0.0
2018-Jun-09 09:26N 51°28' E 003°42'0 0.0
2018-Jun-09 08:59N 51°28' E 003°42'0 0.0
2018-Jun-09 08:23N 51°28' E 003°42'0 0.0
2018-Jun-09 07:59N 51°28' E 003°42'0 0.0
2018-Jun-09 07:29N 51°28' E 003°42'0 0.0
2018-Jun-09 06:56N 51°28' E 003°42'0 0.0
2018-Jun-09 06:20N 51°28' E 003°42'0 0.0
2018-Jun-09 05:56N 51°28' E 003°42'0 0.0
2018-Jun-09 05:29N 51°28' E 003°42'0 0.0
2018-Jun-09 04:59N 51°28' E 003°42'0 0.0
2018-Jun-09 04:29N 51°28' E 003°42'0 0.0
2018-Jun-09 03:59N 51°28' E 003°42'0 0.0
2018-Jun-09 03:29N 51°28' E 003°42'0 0.0
2018-Jun-09 02:56N 51°28' E 003°42'0 0.0
2018-Jun-09 02:29N 51°28' E 003°42'0 0.0
2018-Jun-09 01:59N 51°28' E 003°42'0 0.0
2018-Jun-09 01:26N 51°28' E 003°42'0 0.0
2018-Jun-09 00:59N 51°28' E 003°42'0 0.0
2018-Jun-09 00:26N 51°28' E 003°42'0 0.0
2018-Jun-08 23:56N 51°28' E 003°42'0 0.0
2018-Jun-08 23:29N 51°28' E 003°42'0 0.0
2018-Jun-08 22:59N 51°28' E 003°42'0 0.0
2018-Jun-08 22:26N 51°28' E 003°42'0 0.0
2018-Jun-08 21:59N 51°28' E 003°42'0 0.0
2018-Jun-08 21:29N 51°28' E 003°42'0 0.0
2018-Jun-08 20:59N 51°28' E 003°42'0 0.0
2018-Jun-08 20:29N 51°28' E 003°42'0 0.0
2018-Jun-08 19:53N 51°28' E 003°42'0 0.0
2018-Jun-08 19:29N 51°28' E 003°42'0 0.0
2018-Jun-08 18:59N 51°28' E 003°42'0 0.0
2018-Jun-08 18:26N 51°28' E 003°42'0 0.0
2018-Jun-08 17:50N 51°28' E 003°42'0 0.0
2018-Jun-08 17:26N 51°28' E 003°42'0 0.0
2018-Jun-08 16:59N 51°28' E 003°42'0 0.0
2018-Jun-08 16:29N 51°28' E 003°42'0 0.0
2018-Jun-08 15:59N 51°28' E 003°42'0 0.0
2018-Jun-08 15:29N 51°28' E 003°42'0 0.0
2018-Jun-08 14:59N 51°28' E 003°42'0 0.0
2018-Jun-08 14:29N 51°28' E 003°42'0 0.0
2018-Jun-08 13:56N 51°28' E 003°42'0 0.0
2018-Jun-08 13:23N 51°28' E 003°42'0 0.0
2018-Jun-08 12:59N 51°28' E 003°42'0 0.0
2018-Jun-08 12:29N 51°28' E 003°42'0 0.0
2018-Jun-08 11:56N 51°28' E 003°42'0 0.0
2018-Jun-08 11:26N 51°28' E 003°42'0 0.0
2018-Jun-08 10:59N 51°28' E 003°42'0 0.0
2018-Jun-08 10:29N 51°28' E 003°42'0 0.0
2018-Jun-08 09:59N 51°28' E 003°42'0 0.0
2018-Jun-08 09:29N 51°28' E 003°42'0 0.0
2018-Jun-08 08:59N 51°28' E 003°42'0 0.0
2018-Jun-08 08:29N 51°28' E 003°42'0 0.0
2018-Jun-08 07:59N 51°28' E 003°42'0 0.0
2018-Jun-08 07:30N 51°28' E 003°42'1 1.3
2018-Jun-08 07:00N 51°27' E 003°41'3 6.5
2018-Jun-08 06:30N 51°26' E 003°36'611.7
2018-Jun-08 06:00N 51°25' E 003°27'612.6
2018-Jun-08 05:30N 51°24' E 003°17'611.7
2018-Jun-08 05:00N 51°24' E 003°07'5 9.8
2018-Jun-08 04:30N 51°23' E 002°60'510.2
2018-Jun-08 04:01N 51°22' E 002°52'5 9.9
2018-Jun-08 03:28N 51°21' E 002°43'4 7.9
2018-Jun-08 03:00N 51°22' E 002°38'5 9.5
2018-Jun-08 02:30N 51°22' E 002°30'5 9.3
2018-Jun-08 02:00N 51°20' E 002°23'5 9.4
2018-Jun-08 01:30N 51°17' E 002°17'611.5
2018-Jun-08 01:00N 51°14' E 002°09'612.5
2018-Jun-08 00:30N 51°11' E 002°01'612.5
2018-Jun-08 00:00N 51°09' E 001°52'612.4
2018-Jun-07 23:30N 51°04' E 001°44'612.8
2018-Jun-07 23:00N 50°60' E 001°37'713.0
2018-Jun-07 22:29N 50°55' E 001°30'613.1
2018-Jun-07 22:01N 50°49' E 001°26'713.3
2018-Jun-07 21:30N 50°43' E 001°22'2112.6
2018-Jun-07 19:49N 50°30' E 000°56'412.9
2018-Jun-07 19:29N 50°28' E 000°49'1212.9
2018-Jun-07 18:33N 50°25' E 000°31'213.9
2018-Jun-07 18:25N 50°24' E 000°28'2114.5
2018-Jun-07 17:00N 50°19' W 000°03'915.1
2018-Jun-07 16:24N 50°17' W 000°17'715.5
2018-Jun-07 15:55N 50°15' W 000°28'1416.0
2018-Jun-07 15:04N 50°11' W 000°48'116.5
2018-Jun-07 15:00N 50°11' W 000°50'816.3
2018-Jun-07 14:30N 50°09' W 001°02'816.4
2018-Jun-07 14:00N 50°07' W 001°15'816.4
2018-Jun-07 13:30N 50°05' W 001°27'816.6
2018-Jun-07 13:00N 50°03' W 001°40'816.2
2018-Jun-07 12:30N 50°01' W 001°52'815.9
2018-Jun-07 12:00N 49°59' W 002°04'3014.9
2018-Jun-07 09:58N 49°49' W 002°48'714.3
2018-Jun-07 09:27N 49°46' W 002°59'914.3
2018-Jun-07 08:48N 49°42' W 003°11'414.3
2018-Jun-07 08:30N 49°40' W 003°17'7214.2
2018-Jun-07 03:25N 49°03' W 004°53'614.1
2018-Jun-07 03:00N 49°01' W 005°01'714.1
2018-Jun-07 02:31N 48°57' W 005°10'814.1
2018-Jun-07 01:58N 48°54' W 005°20'613.9
2018-Jun-07 01:30N 48°50' W 005°28'814.0
2018-Jun-07 00:58N 48°45' W 005°36'1413.9
2018-Jun-06 23:59N 48°33' W 005°48'3714.4
2018-Jun-06 21:23N 48°02' W 006°20'615.0
2018-Jun-06 20:58N 47°57' W 006°24'  

Dump ship's entire track history